sensor_id;sensor_type;location;lat;lon;timestamp;P1;durP1;ratioP1;P2;durP2;ratioP2
75220;SDS011;63802;53.232;6.570;2023-04-03T00:00:59;3.03;;;0.90;;
75220;SDS011;63802;53.232;6.570;2023-04-03T00:03:25;0.65;;;0.65;;
75220;SDS011;63802;53.232;6.570;2023-04-03T00:05:50;3.53;;;1.10;;
75220;SDS011;63802;53.232;6.570;2023-04-03T00:08:16;0.95;;;0.50;;
75220;SDS011;63802;53.232;6.570;2023-04-03T00:10:41;2.90;;;1.08;;
75220;SDS011;63802;53.232;6.570;2023-04-03T00:13:07;3.83;;;1.00;;
75220;SDS011;63802;53.232;6.570;2023-04-03T00:15:34;3.38;;;0.85;;
75220;SDS011;63802;53.232;6.570;2023-04-03T00:18:00;1.65;;;0.70;;
75220;SDS011;63802;53.232;6.570;2023-04-03T00:20:26;2.38;;;0.80;;
75220;SDS011;63802;53.232;6.570;2023-04-03T00:22:53;5.40;;;1.00;;
75220;SDS011;63802;53.232;6.570;2023-04-03T00:25:19;2.55;;;1.00;;
75220;SDS011;63802;53.232;6.570;2023-04-03T00:27:45;4.65;;;0.90;;
75220;SDS011;63802;53.232;6.570;2023-04-03T00:30:11;2.78;;;0.77;;
75220;SDS011;63802;53.232;6.570;2023-04-03T00:32:39;2.10;;;0.75;;
75220;SDS011;63802;53.232;6.570;2023-04-03T00:35:05;2.63;;;1.02;;
75220;SDS011;63802;53.232;6.570;2023-04-03T00:37:31;3.78;;;1.10;;
75220;SDS011;63802;53.232;6.570;2023-04-03T00:39:57;2.10;;;0.80;;
75220;SDS011;63802;53.232;6.570;2023-04-03T00:42:23;2.33;;;0.95;;
75220;SDS011;63802;53.232;6.570;2023-04-03T00:47:15;1.23;;;0.82;;
75220;SDS011;63802;53.232;6.570;2023-04-03T00:49:42;1.48;;;0.85;;
75220;SDS011;63802;53.232;6.570;2023-04-03T00:52:10;1.73;;;1.08;;
75220;SDS011;63802;53.232;6.570;2023-04-03T00:54:40;2.40;;;0.82;;
75220;SDS011;63802;53.232;6.570;2023-04-03T00:57:07;5.03;;;1.17;;
75220;SDS011;63802;53.232;6.570;2023-04-03T00:59:38;3.67;;;0.93;;
75220;SDS011;63802;53.232;6.570;2023-04-03T01:02:09;2.25;;;0.95;;
75220;SDS011;63802;53.232;6.570;2023-04-03T01:04:39;4.25;;;1.23;;
75220;SDS011;63802;53.232;6.570;2023-04-03T01:07:08;1.17;;;0.70;;
75220;SDS011;63802;53.232;6.570;2023-04-03T01:09:36;0.68;;;0.60;;
75220;SDS011;63802;53.232;6.570;2023-04-03T01:15:06;1.92;;;0.75;;
75220;SDS011;63802;53.232;6.570;2023-04-03T01:17:50;2.03;;;1.38;;
75220;SDS011;63802;53.232;6.570;2023-04-03T01:25:36;5.07;;;1.00;;
75220;SDS011;63802;53.232;6.570;2023-04-03T01:28:07;3.40;;;1.00;;
75220;SDS011;63802;53.232;6.570;2023-04-03T01:31:19;4.40;;;1.00;;
75220;SDS011;63802;53.232;6.570;2023-04-03T01:33:24;5.00;;;1.20;;
75220;SDS011;63802;53.232;6.570;2023-04-03T01:35:50;3.42;;;1.00;;
75220;SDS011;63802;53.232;6.570;2023-04-03T01:38:15;2.22;;;0.85;;
75220;SDS011;63802;53.232;6.570;2023-04-03T01:40:41;2.13;;;1.50;;
75220;SDS011;63802;53.232;6.570;2023-04-03T01:43:06;1.67;;;0.90;;
75220;SDS011;63802;53.232;6.570;2023-04-03T01:45:31;5.45;;;1.00;;
75220;SDS011;63802;53.232;6.570;2023-04-03T01:47:57;4.45;;;1.35;;
75220;SDS011;63802;53.232;6.570;2023-04-03T01:50:22;3.33;;;1.00;;
75220;SDS011;63802;53.232;6.570;2023-04-03T01:52:48;1.83;;;1.10;;
75220;SDS011;63802;53.232;6.570;2023-04-03T01:55:13;1.88;;;1.40;;
75220;SDS011;63802;53.232;6.570;2023-04-03T01:57:40;1.45;;;0.77;;
75220;SDS011;63802;53.232;6.570;2023-04-03T02:00:05;3.70;;;0.98;;
75220;SDS011;63802;53.232;6.570;2023-04-03T02:02:32;5.38;;;1.23;;
75220;SDS011;63802;53.232;6.570;2023-04-03T02:04:58;3.97;;;1.25;;
75220;SDS011;63802;53.232;6.570;2023-04-03T02:07:23;3.90;;;1.35;;
75220;SDS011;63802;53.232;6.570;2023-04-03T02:09:49;2.97;;;1.05;;
75220;SDS011;63802;53.232;6.570;2023-04-03T02:12:14;4.85;;;1.15;;
75220;SDS011;63802;53.232;6.570;2023-04-03T02:14:40;4.88;;;1.23;;
75220;SDS011;63802;53.232;6.570;2023-04-03T02:17:05;1.40;;;0.82;;
75220;SDS011;63802;53.232;6.570;2023-04-03T02:19:33;4.57;;;1.00;;
75220;SDS011;63802;53.232;6.570;2023-04-03T02:22:02;6.93;;;0.93;;
75220;SDS011;63802;53.232;6.570;2023-04-03T02:24:28;1.40;;;0.90;;
75220;SDS011;63802;53.232;6.570;2023-04-03T02:26:53;3.90;;;1.08;;
75220;SDS011;63802;53.232;6.570;2023-04-03T02:29:19;1.98;;;0.95;;
75220;SDS011;63802;53.232;6.570;2023-04-03T02:31:45;4.30;;;1.33;;
75220;SDS011;63802;53.232;6.570;2023-04-03T02:34:10;2.22;;;1.40;;
75220;SDS011;63802;53.232;6.570;2023-04-03T02:36:36;3.05;;;1.00;;
75220;SDS011;63802;53.232;6.570;2023-04-03T02:39:01;4.18;;;1.15;;
75220;SDS011;63802;53.232;6.570;2023-04-03T02:41:28;3.35;;;1.42;;
75220;SDS011;63802;53.232;6.570;2023-04-03T02:43:59;3.70;;;1.20;;
75220;SDS011;63802;53.232;6.570;2023-04-03T02:46:25;4.30;;;1.10;;
75220;SDS011;63802;53.232;6.570;2023-04-03T02:48:50;6.85;;;1.40;;
75220;SDS011;63802;53.232;6.570;2023-04-03T02:51:16;3.17;;;1.17;;
75220;SDS011;63802;53.232;6.570;2023-04-03T02:53:41;3.75;;;1.30;;
75220;SDS011;63802;53.232;6.570;2023-04-03T02:56:07;2.47;;;1.23;;
75220;SDS011;63802;53.232;6.570;2023-04-03T02:58:32;2.03;;;1.25;;
75220;SDS011;63802;53.232;6.570;2023-04-03T03:00:57;1.75;;;1.17;;
75220;SDS011;63802;53.232;6.570;2023-04-03T03:03:23;3.53;;;1.42;;
75220;SDS011;63802;53.232;6.570;2023-04-03T03:05:48;10.30;;;1.70;;
75220;SDS011;63802;53.232;6.570;2023-04-03T03:08:13;5.53;;;1.23;;
75220;SDS011;63802;53.232;6.570;2023-04-03T03:10:39;2.17;;;1.00;;
75220;SDS011;63802;53.232;6.570;2023-04-03T03:13:04;6.53;;;1.58;;
75220;SDS011;63802;53.232;6.570;2023-04-03T03:15:30;3.25;;;1.17;;
75220;SDS011;63802;53.232;6.570;2023-04-03T03:17:56;5.63;;;1.90;;
75220;SDS011;63802;53.232;6.570;2023-04-03T03:20:21;7.65;;;1.90;;
75220;SDS011;63802;53.232;6.570;2023-04-03T03:22:46;4.28;;;1.30;;
75220;SDS011;63802;53.232;6.570;2023-04-03T03:25:12;2.88;;;1.27;;
75220;SDS011;63802;53.232;6.570;2023-04-03T03:27:37;2.35;;;1.00;;
75220;SDS011;63802;53.232;6.570;2023-04-03T03:30:03;3.67;;;1.40;;
75220;SDS011;63802;53.232;6.570;2023-04-03T03:32:30;4.28;;;1.52;;
75220;SDS011;63802;53.232;6.570;2023-04-03T03:34:55;3.70;;;1.40;;
75220;SDS011;63802;53.232;6.570;2023-04-03T03:37:20;5.18;;;1.35;;
75220;SDS011;63802;53.232;6.570;2023-04-03T03:39:46;4.30;;;1.27;;
75220;SDS011;63802;53.232;6.570;2023-04-03T03:42:11;4.90;;;1.58;;
75220;SDS011;63802;53.232;6.570;2023-04-03T03:44:37;1.50;;;1.02;;
75220;SDS011;63802;53.232;6.570;2023-04-03T03:47:02;4.45;;;1.35;;
75220;SDS011;63802;53.232;6.570;2023-04-03T03:49:28;2.78;;;0.90;;
75220;SDS011;63802;53.232;6.570;2023-04-03T03:51:53;9.10;;;1.60;;
75220;SDS011;63802;53.232;6.570;2023-04-03T03:54:19;3.33;;;1.38;;
75220;SDS011;63802;53.232;6.570;2023-04-03T03:56:44;2.88;;;1.55;;
75220;SDS011;63802;53.232;6.570;2023-04-03T03:59:11;3.67;;;1.55;;
75220;SDS011;63802;53.232;6.570;2023-04-03T04:01:37;3.95;;;1.40;;
75220;SDS011;63802;53.232;6.570;2023-04-03T04:04:03;4.20;;;1.25;;
75220;SDS011;63802;53.232;6.570;2023-04-03T04:06:28;3.38;;;1.40;;
75220;SDS011;63802;53.232;6.570;2023-04-03T04:08:57;11.25;;;2.35;;
75220;SDS011;63802;53.232;6.570;2023-04-03T04:11:22;6.75;;;2.20;;
75220;SDS011;63802;53.232;6.570;2023-04-03T04:13:47;4.22;;;1.67;;
75220;SDS011;63802;53.232;6.570;2023-04-03T04:16:13;4.95;;;1.77;;
75220;SDS011;63802;53.232;6.570;2023-04-03T04:18:38;3.55;;;1.20;;
75220;SDS011;63802;53.232;6.570;2023-04-03T04:21:04;7.85;;;2.17;;
75220;SDS011;63802;53.232;6.570;2023-04-03T04:23:29;3.22;;;1.80;;
75220;SDS011;63802;53.232;6.570;2023-04-03T04:25:55;6.88;;;2.03;;
75220;SDS011;63802;53.232;6.570;2023-04-03T04:28:20;5.72;;;2.22;;
75220;SDS011;63802;53.232;6.570;2023-04-03T04:30:45;6.63;;;2.05;;
75220;SDS011;63802;53.232;6.570;2023-04-03T04:33:11;10.48;;;2.38;;
75220;SDS011;63802;53.232;6.570;2023-04-03T04:35:36;3.42;;;1.60;;
75220;SDS011;63802;53.232;6.570;2023-04-03T04:38:02;9.80;;;1.90;;
75220;SDS011;63802;53.232;6.570;2023-04-03T04:40:27;8.30;;;2.40;;
75220;SDS011;63802;53.232;6.570;2023-04-03T04:42:54;9.13;;;2.40;;
75220;SDS011;63802;53.232;6.570;2023-04-03T04:45:20;3.42;;;1.63;;
75220;SDS011;63802;53.232;6.570;2023-04-03T04:47:45;5.78;;;1.92;;
75220;SDS011;63802;53.232;6.570;2023-04-03T04:50:11;5.05;;;2.20;;
75220;SDS011;63802;53.232;6.570;2023-04-03T04:52:37;7.03;;;2.25;;
75220;SDS011;63802;53.232;6.570;2023-04-03T04:55:03;6.85;;;2.00;;
75220;SDS011;63802;53.232;6.570;2023-04-03T04:57:29;5.63;;;2.22;;
75220;SDS011;63802;53.232;6.570;2023-04-03T04:59:56;4.43;;;1.85;;
75220;SDS011;63802;53.232;6.570;2023-04-03T05:02:21;5.88;;;2.20;;
75220;SDS011;63802;53.232;6.570;2023-04-03T05:04:50;4.25;;;1.80;;
75220;SDS011;63802;53.232;6.570;2023-04-03T05:07:16;8.32;;;2.70;;
75220;SDS011;63802;53.232;6.570;2023-04-03T05:09:42;4.45;;;2.13;;
75220;SDS011;63802;53.232;6.570;2023-04-03T05:12:07;3.85;;;1.65;;
75220;SDS011;63802;53.232;6.570;2023-04-03T05:14:33;5.38;;;1.90;;
75220;SDS011;63802;53.232;6.570;2023-04-03T05:16:58;6.00;;;2.15;;
75220;SDS011;63802;53.232;6.570;2023-04-03T05:19:24;7.40;;;2.00;;
75220;SDS011;63802;53.232;6.570;2023-04-03T05:21:49;7.47;;;2.10;;
75220;SDS011;63802;53.232;6.570;2023-04-03T05:24:15;5.75;;;1.70;;
75220;SDS011;63802;53.232;6.570;2023-04-03T05:26:41;6.15;;;2.15;;
75220;SDS011;63802;53.232;6.570;2023-04-03T05:29:08;4.85;;;2.40;;
75220;SDS011;63802;53.232;6.570;2023-04-03T05:31:33;3.03;;;1.63;;
75220;SDS011;63802;53.232;6.570;2023-04-03T05:33:59;4.20;;;1.90;;
75220;SDS011;63802;53.232;6.570;2023-04-03T05:36:24;8.38;;;1.88;;
75220;SDS011;63802;53.232;6.570;2023-04-03T05:38:50;12.43;;;2.80;;
75220;SDS011;63802;53.232;6.570;2023-04-03T05:41:16;4.00;;;1.67;;
75220;SDS011;63802;53.232;6.570;2023-04-03T05:43:41;3.92;;;2.00;;
75220;SDS011;63802;53.232;6.570;2023-04-03T05:46:11;6.00;;;2.08;;
75220;SDS011;63802;53.232;6.570;2023-04-03T05:48:37;7.97;;;1.90;;
75220;SDS011;63802;53.232;6.570;2023-04-03T05:51:03;6.45;;;2.00;;
75220;SDS011;63802;53.232;6.570;2023-04-03T05:53:30;5.10;;;2.10;;
75220;SDS011;63802;53.232;6.570;2023-04-03T05:55:58;4.53;;;1.50;;
75220;SDS011;63802;53.232;6.570;2023-04-03T05:58:23;5.82;;;1.83;;
75220;SDS011;63802;53.232;6.570;2023-04-03T06:00:49;4.72;;;1.75;;
75220;SDS011;63802;53.232;6.570;2023-04-03T06:03:14;4.00;;;1.90;;
75220;SDS011;63802;53.232;6.570;2023-04-03T06:05:40;5.20;;;2.00;;
75220;SDS011;63802;53.232;6.570;2023-04-03T06:08:06;5.78;;;2.13;;
75220;SDS011;63802;53.232;6.570;2023-04-03T06:10:32;4.68;;;1.80;;
75220;SDS011;63802;53.232;6.570;2023-04-03T06:12:57;9.73;;;2.17;;
75220;SDS011;63802;53.232;6.570;2023-04-03T06:15:23;4.85;;;1.45;;
75220;SDS011;63802;53.232;6.570;2023-04-03T06:17:48;5.10;;;1.92;;
75220;SDS011;63802;53.232;6.570;2023-04-03T06:20:13;8.02;;;2.17;;
75220;SDS011;63802;53.232;6.570;2023-04-03T06:22:39;5.03;;;2.05;;
75220;SDS011;63802;53.232;6.570;2023-04-03T06:25:05;10.00;;;2.30;;
75220;SDS011;63802;53.232;6.570;2023-04-03T06:27:31;4.97;;;1.92;;
75220;SDS011;63802;53.232;6.570;2023-04-03T06:29:57;7.22;;;1.92;;
75220;SDS011;63802;53.232;6.570;2023-04-03T06:32:22;4.13;;;1.90;;
75220;SDS011;63802;53.232;6.570;2023-04-03T06:34:48;6.55;;;1.90;;
75220;SDS011;63802;53.232;6.570;2023-04-03T06:37:17;3.85;;;1.40;;
75220;SDS011;63802;53.232;6.570;2023-04-03T06:39:44;4.82;;;2.17;;
75220;SDS011;63802;53.232;6.570;2023-04-03T06:42:11;5.43;;;1.90;;
75220;SDS011;63802;53.232;6.570;2023-04-03T06:44:36;9.68;;;2.05;;
75220;SDS011;63802;53.232;6.570;2023-04-03T06:47:02;5.55;;;2.05;;
75220;SDS011;63802;53.232;6.570;2023-04-03T06:49:27;4.82;;;2.00;;
75220;SDS011;63802;53.232;6.570;2023-04-03T06:51:56;3.80;;;1.83;;
75220;SDS011;63802;53.232;6.570;2023-04-03T06:54:22;4.55;;;2.00;;
75220;SDS011;63802;53.232;6.570;2023-04-03T06:56:48;4.07;;;1.67;;
75220;SDS011;63802;53.232;6.570;2023-04-03T06:59:14;8.68;;;2.20;;
75220;SDS011;63802;53.232;6.570;2023-04-03T07:01:40;5.85;;;1.95;;
75220;SDS011;63802;53.232;6.570;2023-04-03T07:04:06;2.95;;;1.52;;
75220;SDS011;63802;53.232;6.570;2023-04-03T07:06:33;7.03;;;2.17;;
75220;SDS011;63802;53.232;6.570;2023-04-03T07:08:59;4.20;;;1.50;;
75220;SDS011;63802;53.232;6.570;2023-04-03T07:11:25;6.10;;;1.90;;
75220;SDS011;63802;53.232;6.570;2023-04-03T07:13:51;5.07;;;1.70;;
75220;SDS011;63802;53.232;6.570;2023-04-03T07:16:17;5.03;;;1.98;;
75220;SDS011;63802;53.232;6.570;2023-04-03T07:18:43;5.22;;;1.77;;
75220;SDS011;63802;53.232;6.570;2023-04-03T07:21:09;7.30;;;1.55;;
75220;SDS011;63802;53.232;6.570;2023-04-03T07:23:35;8.02;;;2.25;;
75220;SDS011;63802;53.232;6.570;2023-04-03T07:26:01;3.17;;;1.70;;
75220;SDS011;63802;53.232;6.570;2023-04-03T07:28:27;6.68;;;2.10;;
75220;SDS011;63802;53.232;6.570;2023-04-03T07:30:54;4.90;;;2.00;;
75220;SDS011;63802;53.232;6.570;2023-04-03T07:33:25;6.70;;;2.08;;
75220;SDS011;63802;53.232;6.570;2023-04-03T07:35:51;10.10;;;2.25;;
75220;SDS011;63802;53.232;6.570;2023-04-03T07:38:17;4.75;;;1.60;;
75220;SDS011;63802;53.232;6.570;2023-04-03T07:40:46;5.90;;;1.58;;
75220;SDS011;63802;53.232;6.570;2023-04-03T07:45:39;2.60;;;1.42;;
75220;SDS011;63802;53.232;6.570;2023-04-03T07:48:04;4.53;;;1.45;;
75220;SDS011;63802;53.232;6.570;2023-04-03T07:50:33;4.65;;;2.10;;
75220;SDS011;63802;53.232;6.570;2023-04-03T07:52:59;5.88;;;2.00;;
75220;SDS011;63802;53.232;6.570;2023-04-03T07:55:25;5.03;;;1.92;;
75220;SDS011;63802;53.232;6.570;2023-04-03T07:57:51;6.75;;;1.90;;
75220;SDS011;63802;53.232;6.570;2023-04-03T08:00:17;5.72;;;1.73;;
75220;SDS011;63802;53.232;6.570;2023-04-03T08:02:44;4.75;;;2.20;;
75220;SDS011;63802;53.232;6.570;2023-04-03T08:05:15;4.35;;;1.60;;
75220;SDS011;63802;53.232;6.570;2023-04-03T08:07:40;3.58;;;1.70;;
75220;SDS011;63802;53.232;6.570;2023-04-03T08:10:06;4.53;;;1.60;;
75220;SDS011;63802;53.232;6.570;2023-04-03T08:12:31;6.18;;;1.92;;
75220;SDS011;63802;53.232;6.570;2023-04-03T08:14:59;7.60;;;1.98;;
75220;SDS011;63802;53.232;6.570;2023-04-03T08:17:25;5.85;;;1.50;;
75220;SDS011;63802;53.232;6.570;2023-04-03T08:19:51;5.90;;;1.40;;
75220;SDS011;63802;53.232;6.570;2023-04-03T08:22:16;5.32;;;1.60;;
75220;SDS011;63802;53.232;6.570;2023-04-03T08:24:42;3.63;;;1.50;;
75220;SDS011;63802;53.232;6.570;2023-04-03T08:27:07;5.07;;;1.90;;
75220;SDS011;63802;53.232;6.570;2023-04-03T08:29:33;1.90;;;1.25;;
75220;SDS011;63802;53.232;6.570;2023-04-03T08:31:58;4.72;;;1.50;;
75220;SDS011;63802;53.232;6.570;2023-04-03T08:34:24;4.95;;;1.52;;
75220;SDS011;63802;53.232;6.570;2023-04-03T08:36:49;5.13;;;1.60;;
75220;SDS011;63802;53.232;6.570;2023-04-03T08:39:14;6.68;;;1.75;;
75220;SDS011;63802;53.232;6.570;2023-04-03T08:41:44;3.15;;;1.73;;
75220;SDS011;63802;53.232;6.570;2023-04-03T08:49:49;3.42;;;1.50;;
75220;SDS011;63802;53.232;6.570;2023-04-03T08:52:22;4.70;;;1.63;;
75220;SDS011;63802;53.232;6.570;2023-04-03T08:54:57;3.45;;;1.40;;
75220;SDS011;63802;53.232;6.570;2023-04-03T08:57:41;3.77;;;1.50;;
75220;SDS011;63802;53.232;6.570;2023-04-03T09:00:17;4.10;;;1.30;;
75220;SDS011;63802;53.232;6.570;2023-04-03T09:02:47;5.60;;;1.40;;
75220;SDS011;63802;53.232;6.570;2023-04-03T09:05:28;2.33;;;1.17;;
75220;SDS011;63802;53.232;6.570;2023-04-03T09:08:07;2.97;;;1.25;;
75220;SDS011;63802;53.232;6.570;2023-04-03T09:10:44;1.20;;;0.93;;
75220;SDS011;63802;53.232;6.570;2023-04-03T09:15:53;2.20;;;1.02;;
75220;SDS011;63802;53.232;6.570;2023-04-03T09:18:23;2.75;;;1.20;;
75220;SDS011;63802;53.232;6.570;2023-04-03T09:23:51;2.65;;;0.93;;
75220;SDS011;63802;53.232;6.570;2023-04-03T09:26:24;1.55;;;1.00;;
75220;SDS011;63802;53.232;6.570;2023-04-03T09:28:54;2.85;;;1.13;;
75220;SDS011;63802;53.232;6.570;2023-04-03T09:31:24;2.53;;;1.10;;
75220;SDS011;63802;53.232;6.570;2023-04-03T09:33:55;1.27;;;1.10;;
75220;SDS011;63802;53.232;6.570;2023-04-03T09:39:25;2.20;;;0.95;;
75220;SDS011;63802;53.232;6.570;2023-04-03T09:42:14;5.00;;;1.13;;
75220;SDS011;63802;53.232;6.570;2023-04-03T09:44:55;1.35;;;1.05;;
75220;SDS011;63802;53.232;6.570;2023-04-03T09:47:26;3.25;;;1.20;;
75220;SDS011;63802;53.232;6.570;2023-04-03T09:52:37;5.18;;;1.38;;
75220;SDS011;63802;53.232;6.570;2023-04-03T09:55:16;4.93;;;1.30;;
75220;SDS011;63802;53.232;6.570;2023-04-03T09:57:44;2.95;;;0.95;;
75220;SDS011;63802;53.232;6.570;2023-04-03T10:02:49;5.07;;;1.30;;
75220;SDS011;63802;53.232;6.570;2023-04-03T10:10:36;2.03;;;0.90;;
75220;SDS011;63802;53.232;6.570;2023-04-03T10:13:15;3.63;;;1.17;;
75220;SDS011;63802;53.232;6.570;2023-04-03T10:15:50;4.53;;;1.08;;
75220;SDS011;63802;53.232;6.570;2023-04-03T10:27:13;1.30;;;0.90;;
75220;SDS011;63802;53.232;6.570;2023-04-03T10:32:45;3.87;;;1.00;;
75220;SDS011;63802;53.232;6.570;2023-04-03T10:35:42;3.15;;;1.00;;
75220;SDS011;63802;53.232;6.570;2023-04-03T10:40:54;1.83;;;0.85;;
75220;SDS011;63802;53.232;6.570;2023-04-03T10:43:36;2.42;;;1.20;;
75220;SDS011;63802;53.232;6.570;2023-04-03T10:51:34;2.35;;;0.98;;
75220;SDS011;63802;53.232;6.570;2023-04-03T10:54:24;2.25;;;1.00;;
75220;SDS011;63802;53.232;6.570;2023-04-03T10:56:52;4.28;;;1.00;;
75220;SDS011;63802;53.232;6.570;2023-04-03T11:02:33;1.75;;;0.90;;
75220;SDS011;63802;53.232;6.570;2023-04-03T11:05:31;2.55;;;0.82;;
75220;SDS011;63802;53.232;6.570;2023-04-03T11:08:08;5.03;;;1.52;;
75220;SDS011;63802;53.232;6.570;2023-04-03T11:10:57;5.45;;;1.20;;
75220;SDS011;63802;53.232;6.570;2023-04-03T11:16:14;5.72;;;1.05;;
75220;SDS011;63802;53.232;6.570;2023-04-03T11:19:29;1.33;;;0.68;;
75220;SDS011;63802;53.232;6.570;2023-04-03T11:24:24;3.17;;;0.80;;
75220;SDS011;63802;53.232;6.570;2023-04-03T11:26:53;1.58;;;0.80;;
75220;SDS011;63802;53.232;6.570;2023-04-03T11:29:21;1.67;;;1.00;;
75220;SDS011;63802;53.232;6.570;2023-04-03T11:37:15;3.83;;;0.90;;
75220;SDS011;63802;53.232;6.570;2023-04-03T11:40:00;2.60;;;0.73;;
75220;SDS011;63802;53.232;6.570;2023-04-03T11:42:42;3.83;;;0.90;;
75220;SDS011;63802;53.232;6.570;2023-04-03T11:45:54;1.02;;;0.80;;
75220;SDS011;63802;53.232;6.570;2023-04-03T11:50:57;3.10;;;0.70;;
75220;SDS011;63802;53.232;6.570;2023-04-03T11:56:47;3.03;;;1.00;;
75220;SDS011;63802;53.232;6.570;2023-04-03T11:59:33;4.68;;;1.10;;
75220;SDS011;63802;53.232;6.570;2023-04-03T12:01:46;2.58;;;0.73;;
75220;SDS011;63802;53.232;6.570;2023-04-03T12:04:16;4.07;;;1.40;;
75220;SDS011;63802;53.232;6.570;2023-04-03T12:09:25;1.77;;;0.90;;
75220;SDS011;63802;53.232;6.570;2023-04-03T12:11:52;1.90;;;1.08;;
75220;SDS011;63802;53.232;6.570;2023-04-03T12:14:18;1.92;;;1.30;;
75220;SDS011;63802;53.232;6.570;2023-04-03T12:16:50;2.53;;;1.00;;
75220;SDS011;63802;53.232;6.570;2023-04-03T12:35:18;1.15;;;0.77;;
75220;SDS011;63802;53.232;6.570;2023-04-03T12:46:18;1.73;;;0.88;;
75220;SDS011;63802;53.232;6.570;2023-04-03T12:48:33;1.33;;;0.80;;
75220;SDS011;63802;53.232;6.570;2023-04-03T12:51:05;2.13;;;1.10;;
75220;SDS011;63802;53.232;6.570;2023-04-03T12:53:32;3.30;;;0.85;;
75220;SDS011;63802;53.232;6.570;2023-04-03T12:58:44;3.67;;;1.10;;
75220;SDS011;63802;53.232;6.570;2023-04-03T13:01:11;4.85;;;0.90;;
75220;SDS011;63802;53.232;6.570;2023-04-03T13:03:39;2.58;;;1.10;;
75220;SDS011;63802;53.232;6.570;2023-04-03T13:08:52;1.98;;;0.85;;
75220;SDS011;63802;53.232;6.570;2023-04-03T13:11:27;2.47;;;0.80;;
75220;SDS011;63802;53.232;6.570;2023-04-03T13:14:05;1.60;;;1.00;;
75220;SDS011;63802;53.232;6.570;2023-04-03T13:19:40;1.27;;;1.05;;
75220;SDS011;63802;53.232;6.570;2023-04-03T13:25:11;3.75;;;0.73;;
75220;SDS011;63802;53.232;6.570;2023-04-03T13:27:40;1.33;;;0.80;;
75220;SDS011;63802;53.232;6.570;2023-04-03T13:30:19;1.83;;;0.73;;
75220;SDS011;63802;53.232;6.570;2023-04-03T13:32:48;3.63;;;1.02;;
75220;SDS011;63802;53.232;6.570;2023-04-03T13:38:20;1.30;;;0.73;;
75220;SDS011;63802;53.232;6.570;2023-04-03T13:43:30;0.90;;;0.70;;
75220;SDS011;63802;53.232;6.570;2023-04-03T13:46:03;4.07;;;1.13;;
75220;SDS011;63802;53.232;6.570;2023-04-03T13:48:35;1.75;;;0.95;;
75220;SDS011;63802;53.232;6.570;2023-04-03T13:53:47;4.03;;;1.33;;
75220;SDS011;63802;53.232;6.570;2023-04-03T13:56:31;2.65;;;1.30;;
75220;SDS011;63802;53.232;6.570;2023-04-03T13:58:59;5.10;;;1.30;;
75220;SDS011;63802;53.232;6.570;2023-04-03T14:01:40;2.25;;;1.27;;
75220;SDS011;63802;53.232;6.570;2023-04-03T14:04:12;2.75;;;1.23;;
75220;SDS011;63802;53.232;6.570;2023-04-03T14:06:43;3.45;;;1.40;;
75220;SDS011;63802;53.232;6.570;2023-04-03T14:09:12;4.28;;;1.40;;
75220;SDS011;63802;53.232;6.570;2023-04-03T14:11:39;5.25;;;1.50;;
75220;SDS011;63802;53.232;6.570;2023-04-03T14:14:09;2.60;;;1.10;;
75220;SDS011;63802;53.232;6.570;2023-04-03T14:16:40;1.67;;;1.02;;
75220;SDS011;63802;53.232;6.570;2023-04-03T14:19:09;2.22;;;1.10;;
75220;SDS011;63802;53.232;6.570;2023-04-03T14:21:45;2.20;;;1.33;;
75220;SDS011;63802;53.232;6.570;2023-04-03T14:24:11;3.03;;;1.10;;
75220;SDS011;63802;53.232;6.570;2023-04-03T14:26:36;1.92;;;1.00;;
75220;SDS011;63802;53.232;6.570;2023-04-03T14:29:02;3.50;;;1.00;;
75220;SDS011;63802;53.232;6.570;2023-04-03T14:31:27;1.75;;;0.70;;
75220;SDS011;63802;53.232;6.570;2023-04-03T14:33:53;3.17;;;1.10;;
75220;SDS011;63802;53.232;6.570;2023-04-03T14:36:23;3.38;;;0.93;;
75220;SDS011;63802;53.232;6.570;2023-04-03T14:38:51;2.38;;;1.10;;
75220;SDS011;63802;53.232;6.570;2023-04-03T14:41:18;1.52;;;1.10;;
75220;SDS011;63802;53.232;6.570;2023-04-03T14:43:46;1.60;;;0.90;;
75220;SDS011;63802;53.232;6.570;2023-04-03T14:46:13;2.38;;;0.88;;
75220;SDS011;63802;53.232;6.570;2023-04-03T14:48:41;4.47;;;1.05;;
75220;SDS011;63802;53.232;6.570;2023-04-03T14:51:09;2.63;;;1.00;;
75220;SDS011;63802;53.232;6.570;2023-04-03T14:53:36;3.63;;;1.02;;
75220;SDS011;63802;53.232;6.570;2023-04-03T14:56:04;1.80;;;0.85;;
75220;SDS011;63802;53.232;6.570;2023-04-03T14:58:38;2.22;;;1.02;;
75220;SDS011;63802;53.232;6.570;2023-04-03T15:01:03;3.33;;;0.88;;
75220;SDS011;63802;53.232;6.570;2023-04-03T15:03:29;1.25;;;1.00;;
75220;SDS011;63802;53.232;6.570;2023-04-03T15:05:55;1.90;;;0.90;;
75220;SDS011;63802;53.232;6.570;2023-04-03T15:08:21;1.48;;;1.00;;
75220;SDS011;63802;53.232;6.570;2023-04-03T15:10:50;2.38;;;0.90;;
75220;SDS011;63802;53.232;6.570;2023-04-03T15:13:18;2.35;;;1.10;;
75220;SDS011;63802;53.232;6.570;2023-04-03T15:15:44;4.82;;;1.35;;
75220;SDS011;63802;53.232;6.570;2023-04-03T15:18:17;1.77;;;1.42;;
75220;SDS011;63802;53.232;6.570;2023-04-03T15:20:45;2.85;;;1.10;;
75220;SDS011;63802;53.232;6.570;2023-04-03T15:23:12;3.95;;;1.20;;
75220;SDS011;63802;53.232;6.570;2023-04-03T15:25:38;3.58;;;1.00;;
75220;SDS011;63802;53.232;6.570;2023-04-03T15:28:04;3.13;;;1.05;;
75220;SDS011;63802;53.232;6.570;2023-04-03T15:30:30;1.90;;;0.98;;
75220;SDS011;63802;53.232;6.570;2023-04-03T15:32:56;2.00;;;0.90;;
75220;SDS011;63802;53.232;6.570;2023-04-03T15:35:22;1.83;;;0.80;;
75220;SDS011;63802;53.232;6.570;2023-04-03T15:37:47;2.38;;;0.90;;
75220;SDS011;63802;53.232;6.570;2023-04-03T15:40:13;2.75;;;0.80;;
75220;SDS011;63802;53.232;6.570;2023-04-03T15:42:39;1.77;;;0.88;;
75220;SDS011;63802;53.232;6.570;2023-04-03T15:45:06;3.30;;;1.20;;
75220;SDS011;63802;53.232;6.570;2023-04-03T15:47:32;1.75;;;0.98;;
75220;SDS011;63802;53.232;6.570;2023-04-03T15:49:57;0.80;;;0.57;;
75220;SDS011;63802;53.232;6.570;2023-04-03T15:52:23;1.30;;;0.82;;
75220;SDS011;63802;53.232;6.570;2023-04-03T15:54:49;1.00;;;0.90;;
75220;SDS011;63802;53.232;6.570;2023-04-03T15:57:14;3.80;;;1.00;;
75220;SDS011;63802;53.232;6.570;2023-04-03T15:59:40;1.42;;;0.82;;
75220;SDS011;63802;53.232;6.570;2023-04-03T16:02:06;5.95;;;1.42;;
75220;SDS011;63802;53.232;6.570;2023-04-03T16:04:34;1.23;;;0.80;;
75220;SDS011;63802;53.232;6.570;2023-04-03T16:07:01;2.88;;;1.00;;
75220;SDS011;63802;53.232;6.570;2023-04-03T16:09:27;2.88;;;1.10;;
75220;SDS011;63802;53.232;6.570;2023-04-03T16:11:52;1.40;;;1.20;;
75220;SDS011;63802;53.232;6.570;2023-04-03T16:14:18;4.72;;;1.00;;
75220;SDS011;63802;53.232;6.570;2023-04-03T16:16:43;2.30;;;1.10;;
75220;SDS011;63802;53.232;6.570;2023-04-03T16:19:09;3.33;;;1.05;;
75220;SDS011;63802;53.232;6.570;2023-04-03T16:21:35;1.33;;;0.65;;
75220;SDS011;63802;53.232;6.570;2023-04-03T16:24:01;1.73;;;1.02;;
75220;SDS011;63802;53.232;6.570;2023-04-03T16:26:27;2.50;;;0.98;;
75220;SDS011;63802;53.232;6.570;2023-04-03T16:28:52;3.38;;;1.00;;
75220;SDS011;63802;53.232;6.570;2023-04-03T16:31:19;2.88;;;0.95;;
75220;SDS011;63802;53.232;6.570;2023-04-03T16:33:45;5.18;;;1.17;;
75220;SDS011;63802;53.232;6.570;2023-04-03T16:36:11;2.17;;;1.70;;
75220;SDS011;63802;53.232;6.570;2023-04-03T16:38:38;1.98;;;1.00;;
75220;SDS011;63802;53.232;6.570;2023-04-03T16:41:03;2.42;;;0.85;;
75220;SDS011;63802;53.232;6.570;2023-04-03T16:43:30;2.65;;;1.02;;
75220;SDS011;63802;53.232;6.570;2023-04-03T16:45:57;2.17;;;1.15;;
75220;SDS011;63802;53.232;6.570;2023-04-03T16:48:23;4.32;;;1.15;;
75220;SDS011;63802;53.232;6.570;2023-04-03T16:50:48;3.15;;;1.00;;
75220;SDS011;63802;53.232;6.570;2023-04-03T16:53:18;2.38;;;0.95;;
75220;SDS011;63802;53.232;6.570;2023-04-03T16:55:43;1.75;;;0.75;;
75220;SDS011;63802;53.232;6.570;2023-04-03T16:58:09;2.10;;;1.15;;